N365AD -KSAN
Flight info
| Callsign | N365AD |
|---|---|
| Flight time | N/A |
| Altitude | VFR |
| Route | |
| Aircraft | C172/L-VGD/C |
Departure
| Time | N/A |
|---|---|
| Airport | - |
Arrival
| Time | 2026-05-05 03:43 |
|---|---|
| Airport | San Diego International Airport (KSAN) |
| Time | Latitude | Longitude | Altitude | Speed | Heading |
|---|---|---|---|---|---|
| 2026-05-05 03:43 | 32.73325 | -117.17818 | 19 ft | 0 kts | 147° |
| 2026-05-05 03:46 | 32.73292 | -117.17790 | 19 ft | 20 kts | 140° |
| 2026-05-05 03:46 | 32.73166 | -117.17689 | 19 ft | 22 kts | 129° |
| 2026-05-05 03:46 | 32.73093 | -117.17553 | 18 ft | 0 kts | 153° |
| 2026-05-05 03:49 | 32.73049 | -117.17662 | 17 ft | 43 kts | 274° |
| 2026-05-05 03:49 | 32.73157 | -117.18184 | 167 ft | 69 kts | 281° |
| 2026-05-05 03:49 | 32.73283 | -117.18655 | 595 ft | 60 kts | 286° |
| 2026-05-05 03:49 | 32.73423 | -117.19136 | 929 ft | 63 kts | 302° |
| 2026-05-05 03:50 | 32.73933 | -117.19209 | 1137 ft | 92 kts | 7° |
| 2026-05-05 03:50 | 32.74626 | -117.19033 | 1254 ft | 114 kts | 7° |
| 2026-05-05 03:50 | 32.75236 | -117.18443 | 1370 ft | 127 kts | 68° |
| 2026-05-05 03:50 | 32.75177 | -117.17310 | 1210 ft | 138 kts | 107° |
| 2026-05-05 03:51 | 32.74936 | -117.16248 | 1352 ft | 136 kts | 107° |
| 2026-05-05 03:51 | 32.74712 | -117.15188 | 1441 ft | 131 kts | 111° |
| 2026-05-05 03:51 | 32.74144 | -117.14435 | 1407 ft | 127 kts | 159° |
| 2026-05-05 03:51 | 32.73280 | -117.14224 | 1314 ft | 125 kts | 197° |
| 2026-05-05 03:52 | 32.72741 | -117.14912 | 1133 ft | 126 kts | 253° |
| 2026-05-05 03:52 | 32.72615 | -117.15848 | 699 ft | 109 kts | 275° |
| 2026-05-05 03:52 | 32.72821 | -117.16744 | 389 ft | 113 kts | 284° |
| 2026-05-05 03:52 | 32.73019 | -117.17578 | 61 ft | 95 kts | 284° |
| 2026-05-05 03:53 | 32.73187 | -117.18262 | 131 ft | 82 kts | 285° |
| 2026-05-05 03:53 | 32.73371 | -117.18889 | 471 ft | 78 kts | 287° |
| 2026-05-05 03:53 | 32.73539 | -117.19466 | 843 ft | 70 kts | 284° |
| 2026-05-05 03:53 | 32.73817 | -117.19902 | 1112 ft | 88 kts | 349° |
| 2026-05-05 03:54 | 32.74348 | -117.19306 | 1200 ft | 114 kts | 52° |
| 2026-05-05 03:54 | 32.74760 | -117.18438 | 1301 ft | 125 kts | 69° |
| 2026-05-05 03:54 | 32.74647 | -117.17449 | 1323 ft | 128 kts | 127° |
| 2026-05-05 03:54 | 32.74127 | -117.16545 | 1165 ft | 129 kts | 129° |
| 2026-05-05 03:55 | 32.73631 | -117.15762 | 1233 ft | 112 kts | 136° |
| 2026-05-05 03:55 | 32.73005 | -117.15366 | 1287 ft | 102 kts | 176° |
| 2026-05-05 03:55 | 32.72294 | -117.15351 | 1219 ft | 101 kts | 212° |
| 2026-05-05 03:55 | 32.72355 | -117.15969 | 1208 ft | 100 kts | 334° |
| 2026-05-05 03:56 | 32.73033 | -117.16173 | 1339 ft | 95 kts | 340° |
| 2026-05-05 03:56 | 32.73719 | -117.16093 | 1266 ft | 111 kts | 32° |
| 2026-05-05 03:56 | 32.73895 | -117.15254 | 1190 ft | 114 kts | 117° |
| 2026-05-05 03:56 | 32.73342 | -117.14839 | 1356 ft | 85 kts | 200° |
| 2026-05-05 03:57 | 32.73245 | -117.15400 | 1308 ft | 99 kts | 307° |
| 2026-05-05 03:57 | 32.73951 | -117.15569 | 1207 ft | 116 kts | 26° |
| 2026-05-05 03:57 | 32.74060 | -117.14789 | 1228 ft | 107 kts | 145° |
| 2026-05-05 03:57 | 32.73493 | -117.15033 | 1184 ft | 107 kts | 258° |
| 2026-05-05 03:58 | 32.73938 | -117.15711 | 1138 ft | 127 kts | 348° |
| 2026-05-05 03:58 | 32.74767 | -117.15579 | 1275 ft | 122 kts | 34° |
| 2026-05-05 03:58 | 32.75452 | -117.14978 | 1404 ft | 125 kts | 35° |
| 2026-05-05 03:58 | 32.76178 | -117.14334 | 1422 ft | 134 kts | 34° |
| 2026-05-05 03:59 | 32.76749 | -117.13546 | 1591 ft | 128 kts | 92° |
| 2026-05-05 03:59 | 32.76063 | -117.13290 | 1337 ft | 127 kts | 217° |
| 2026-05-05 03:59 | 32.75655 | -117.14118 | 1123 ft | 103 kts | 249° |
| 2026-05-05 03:59 | 32.75419 | -117.14818 | 1005 ft | 83 kts | 248° |
| 2026-05-05 04:00 | 32.75165 | -117.15472 | 987 ft | 90 kts | 235° |
| 2026-05-05 04:00 | 32.74614 | -117.15772 | 712 ft | 90 kts | 202° |
| 2026-05-05 04:00 | 32.73989 | -117.16157 | 634 ft | 98 kts | 210° |
| 2026-05-05 04:00 | 32.73363 | -117.16610 | 458 ft | 103 kts | 215° |
| 2026-05-05 04:01 | 32.73010 | -117.17230 | 206 ft | 94 kts | 265° |
| 2026-05-05 04:01 | 32.73118 | -117.17967 | 16 ft | 84 kts | 284° |
| 2026-05-05 04:01 | 32.73277 | -117.18628 | 235 ft | 85 kts | 284° |
| 2026-05-05 04:01 | 32.73450 | -117.19291 | 510 ft | 85 kts | 283° |
| 2026-05-05 04:02 | 32.73612 | -117.19978 | 715 ft | 91 kts | 282° |
| 2026-05-05 04:02 | 32.73800 | -117.20694 | 1049 ft | 86 kts | 287° |
| 2026-05-05 04:02 | 32.74370 | -117.20952 | 1197 ft | 113 kts | 13° |
| 2026-05-05 04:02 | 32.74927 | -117.20275 | 1245 ft | 129 kts | 72° |
| 2026-05-05 04:03 | 32.74827 | -117.19247 | 1264 ft | 129 kts | 112° |
| 2026-05-05 04:03 | 32.74506 | -117.18199 | 1226 ft | 137 kts | 112° |
| 2026-05-05 04:03 | 32.74159 | -117.17139 | 1206 ft | 137 kts | 118° |
| 2026-05-05 04:03 | 32.73724 | -117.16167 | 1201 ft | 133 kts | 130° |
| 2026-05-05 04:04 | 32.72976 | -117.15756 | 1228 ft | 118 kts | 195° |
| 2026-05-05 04:04 | 32.72529 | -117.16404 | 1216 ft | 103 kts | 281° |
| 2026-05-05 04:04 | 32.72898 | -117.17200 | 435 ft | 115 kts | 289° |
| 2026-05-05 04:04 | 32.73133 | -117.18047 | 48 ft | 98 kts | 284° |
| 2026-05-05 04:05 | 32.73283 | -117.18688 | 21 ft | 66 kts | 292° |
| 2026-05-05 04:05 | 32.73383 | -117.19072 | 20 ft | 24 kts | 338° |
| 2026-05-05 04:05 | 32.73458 | -117.19076 | 18 ft | 0 kts | 85° |
| 2026-05-05 04:06 | 32.73478 | -117.19005 | 17 ft | 27 kts | 97° |
| 2026-05-05 04:06 | 32.73426 | -117.18795 | 17 ft | 26 kts | 96° |
| 2026-05-05 04:06 | 32.73380 | -117.18580 | 20 ft | 30 kts | 111° |
| 2026-05-05 04:07 | 32.73321 | -117.18344 | 19 ft | 29 kts | 102° |
| 2026-05-05 04:07 | 32.73264 | -117.18124 | 19 ft | 27 kts | 106° |
| 2026-05-05 04:07 | 32.73307 | -117.17967 | 20 ft | 21 kts | 19° |
| 2026-05-05 04:07 | 32.73401 | -117.17945 | 22 ft | 0 kts | 5° |
| 2026-05-05 04:10 | 32.73402 | -117.17945 | 22 ft | 2 kts | 7° |
| 2026-05-05 04:10 | 32.73361 | -117.17945 | 22 ft | 23 kts | 208° |
| 2026-05-05 04:11 | 32.73224 | -117.17917 | 17 ft | 24 kts | 104° |
| 2026-05-05 04:11 | 32.73163 | -117.17720 | 19 ft | 26 kts | 109° |
| 2026-05-05 04:11 | 32.73119 | -117.17570 | 18 ft | 0 kts | 141° |
| 2026-05-05 04:11 | 32.73084 | -117.17542 | 18 ft | 0 kts | 230° |
| 2026-05-05 04:12 | 32.73037 | -117.17570 | 18 ft | 13 kts | 224° |
| 2026-05-05 04:12 | 32.73043 | -117.17681 | 17 ft | 14 kts | 285° |
| 2026-05-05 04:12 | 32.73074 | -117.17865 | 16 ft | 48 kts | 279° |
| 2026-05-05 04:12 | 32.73202 | -117.18316 | 181 ft | 70 kts | 288° |
| 2026-05-05 04:13 | 32.73369 | -117.18909 | 455 ft | 81 kts | 284° |